Main page
METAR-TAF:

METAR-TAF

Airports :

Bathurst Airport

Bathurst, New Brunswick, Canada

latitude: 47-38N, longitude: 065-45W, elevation: 59 m

Current weather observation

The report was made 26 minutes ago, at 19:41 UTC
Wind 9 kt from the West/Northwest with gusts up to 26 kt, varying between West and North
Temperature -16°C
Humidity 55%
Pressure 1024 hPa
Visibility: 14.5 km
Clear sky

METAR: CZBF 171941Z AUTO 30009G26KT 270V350 9SM CLR M16/M23 A3025 RMK SLP252

Time: 16:07 (20:07 UTC)

Forecast

The report was made 22 minutes ago, at 19:45 UTC
Forecast valid from 17 at 20 UTC to 18 at 04 UTC
Wind 12 kt from the Northwest with gusts up to 25 kt
Visibility: 10 km
Clear sky
Temporary
from 17 at 20 UTC to 18 at 04 UTC
Visibility: 8.0 km
Blowing snow

TAF: CZBF 171945Z 1720/1804 31012G25KT P6SM SKC TEMPO 1720/1804 5SM BLSN RMK FCST BASED ON AUTO OBS. AUTO OBS NON-REPRESENTATIVE OF CRNT WX. NXT FCST BY 180200Z

Weather observations and forecasts of more than 4000 airports (METAR and TAF reports).

The available stations are represented by yellow and red dots on the map.

Hover mouse over dot to see the name of the station.

Then click to see weather observations and forecasts.

To change the map : click on the green buttons with a black cross to zoom in, on the green button with a dash to zoom out, or on the green arrows for adjacent maps.


METAR-TAF: